This is the latest recevied weather packets stored in our database for station/object IW8ELN-10. If no packets are shown the sender has not sent any weather packets the latest 10 day(s).
| Time | Temp. | Humidity | Pressure | Rain* | Wind** | Luminosity | Snow |
|---|---|---|---|---|---|---|---|
| 1777462966 | 15° C | 53% | 988.4 hPa | - | - | - | - |
| 1777459366 | 14.44° C | 54% | 989.1 hPa | - | - | - | - |
| 1777455766 | 14.44° C | 58% | 989.7 hPa | - | - | - | - |
| 1777448573 | 13.33° C | 60% | 990.3 hPa | - | - | - | - |
| 1777444973 | 12.78° C | 62% | 990.6 hPa | - | - | - | - |
| 1777437772 | 12.78° C | 59% | 994.4 hPa | - | - | - | - |
| 1777434165 | 12.78° C | 60% | 990.4 hPa | - | - | - | - |
| 1777430572 | 12.78° C | 60% | 990.4 hPa | - | - | - | - |
| 1777426972 | 12.78° C | 61% | 990.4 hPa | - | - | - | - |
| 1777423372 | 13.33° C | 63% | 990.5 hPa | - | - | - | - |
| 1777419765 | 13.33° C | 63% | 990.5 hPa | - | - | - | - |
| 1777416165 | 13.89° C | 63% | 990.6 hPa | - | - | - | - |
| 1777408967 | 14.44° C | 65% | 990.2 hPa | - | - | - | - |
| 1777401770 | 15.56° C | 64% | 989.2 hPa | - | - | - | - |
| 1777394577 | 17.22° C | 60% | 995.1 hPa | - | - | - | - |
| 1777380167 | 16.67° C | 64% | 988.6 hPa | - | - | - | - |
| 1777372963 | 15.56° C | 67% | 989.4 hPa | - | - | - | - |
| 1777365770 | 14.44° C | 71% | 990.3 hPa | - | - | - | - |
| 1777362170 | -13.89° C | 68% | 947.4 hPa | - | - | - | - |
| 1777358570 | 13.33° C | 70% | 990.9 hPa | - | - | - | - |
| 1777354963 | 12.78° C | 67% | 991.2 hPa | - | - | - | - |
| 1777347763 | 13.33° C | 67% | 990.7 hPa | - | - | - | - |
| 1777344162 | 13.33° C | 68% | 990.9 hPa | - | - | - | - |
| 1777340562 | 13.33° C | 69% | 996.9 hPa | - | - | - | - |
| 1777336969 | 13.33° C | 70% | 991.3 hPa | - | - | - | - |
* Rain since midnight (hover to see other rain measurements)
** Current wind speed in m/s (hover to see current wind gust speed)